Terminal Aerodrome Forecast
Issued by NWS Wilmington, NC

Home | Current Version | Previous Version | Text Only | Print | Product List | Glossary On
Versions: 1 2 3 4 5 6 7 8 9 10 11 12 13 14 15 16 17 18 19 20
363
FTUS42 KILM 311606 AAB
TAFILM
TAF AMD
KILM 311606Z 3116/0112 08008KT P6SM VCTS BKN025CB BKN070
      TEMPO 3116/3120 5SM SHRA BKN025
     FM010000 03003KT P6SM VCSH SCT050 BKN100
     FM010800 01003KT 4SM BR BKN005=

USA.gov is the U.S. government's official web portal to all federal, state and local government web resources and services.